Time;durP1;ratioP1;P1;durP2;ratioP2;P2;SDS_P1;SDS_P2;PMS_P1;PMS_P2;Temp;Humidity;BMP_temperature;BMP_pressure;BME280_temperature;BME280_humidity;BME280_pressure;Samples;Min_cycle;Max_cycle;Signal;HPM_P1;HPM_P2
2022/01/12 00:01:06;;;;;;;73.90;25.88;;;-1.90;99.90;;;-2.21;63.99;100566.00;4952991;28;20121;-80
2022/01/12 00:03:35;;;;;;;79.88;27.10;;;-1.90;99.90;;;-2.09;63.83;100560.47;4953699;28;20446;-79
2022/01/12 00:06:02;;;;;;;89.88;31.83;;;-1.80;99.90;;;-1.95;63.40;100557.31;4956012;28;20392;-79
2022/01/12 00:08:31;;;;;;;73.45;27.50;;;-1.80;99.90;;;-1.88;63.30;100555.75;4969344;28;20154;-80
2022/01/12 00:11:01;;;;;;;58.83;25.10;;;-1.70;99.90;;;-1.82;63.07;100564.94;4957494;28;20042;-80
2022/01/12 00:13:26;;;;;;;59.13;23.13;;;-1.60;99.90;;;-1.81;63.20;100553.31;4970728;28;20076;-80
2022/01/12 00:15:53;;;;;;;58.08;24.75;;;-1.60;99.90;;;-1.77;63.13;100566.16;4955233;28;20062;-80
2022/01/12 00:18:20;;;;;;;62.80;25.10;;;-1.50;99.90;;;-1.71;63.17;100570.03;4973115;28;20034;-80
2022/01/12 00:20:47;;;;;;;64.72;24.67;;;-1.50;99.90;;;-1.70;63.30;100565.56;4953644;28;20085;-79
2022/01/12 00:23:15;;;;;;;60.40;25.13;;;-1.40;99.90;;;-1.67;63.04;100568.75;4972970;28;20066;-80
2022/01/12 00:33:57;;;;;;;70.30;28.67;;;-1.30;99.90;;;-1.66;63.32;100567.75;4976176;28;20096;-80
2022/01/12 00:36:23;;;;;;;65.63;28.10;;;-1.30;99.90;;;-1.65;63.05;100561.47;4970088;28;20093;-80
2022/01/12 00:38:49;;;;;;;58.10;26.23;;;-1.30;99.90;;;-1.65;62.95;100571.28;4977769;28;20429;-80
2022/01/12 00:41:17;;;;;;;64.07;26.08;;;-1.30;99.90;;;-1.66;63.30;100564.28;4941767;28;20129;-80
2022/01/12 00:43:45;;;;;;;64.40;27.30;;;-1.30;99.90;;;-1.65;63.35;100561.47;4975352;28;20042;-80
2022/01/12 00:46:13;;;;;;;75.82;28.42;;;-1.30;99.90;;;-1.65;63.32;100569.44;4973844;28;20046;-79
2022/01/12 00:48:40;;;;;;;71.65;27.77;;;-1.30;99.90;;;-1.60;62.94;100574.31;4972015;28;20121;-79
2022/01/12 00:51:06;;;;;;;60.05;24.63;;;-1.30;99.90;;;-1.60;63.06;100566.34;4975893;28;20065;-79
2022/01/12 00:53:32;;;;;;;60.67;25.17;;;-1.20;99.90;;;-1.60;63.12;100564.50;4957355;28;20050;-79
2022/01/12 00:55:58;;;;;;;61.00;27.73;;;-1.20;99.90;;;-1.66;63.05;100553.63;4980588;28;20406;-79
2022/01/12 00:58:24;;;;;;;55.47;23.15;;;-1.30;99.90;;;-1.63;63.36;100567.47;4972308;28;20073;-79
2022/01/12 01:00:50;;;;;;;63.17;25.20;;;-1.20;99.90;;;-1.59;63.00;100560.84;4956551;28;20133;-79
2022/01/12 01:03:16;;;;;;;60.38;24.08;;;-1.20;99.90;;;-1.63;62.70;100567.47;4971699;28;20083;-79
2022/01/12 01:05:43;;;;;;;52.67;23.63;;;-1.30;99.90;;;-1.57;62.77;100574.03;4957104;28;20074;-80
2022/01/12 01:08:09;;;;;;;77.88;29.20;;;-1.20;99.90;;;-1.52;62.24;100568.25;4952511;28;20604;-79
2022/01/12 01:13:02;;;;;;;70.43;28.73;;;-1.20;99.90;;;-1.49;62.31;100566.09;4973101;28;20117;-79
2022/01/12 01:15:52;;;;;;;72.55;26.67;;;-1.20;99.90;;;-1.52;62.34;100574.41;4954799;28;20046;-79
2022/01/12 01:26:34;;;;;;;74.43;27.25;;;-1.30;99.90;;;-1.67;62.94;100576.75;4974614;28;20054;-80
2022/01/12 01:29:00;;;;;;;58.70;23.77;;;-1.30;99.90;;;-1.68;62.75;100569.75;4956945;28;20512;-80
2022/01/12 01:31:31;;;;;;;58.65;25.20;;;-1.30;99.90;;;-1.74;62.76;100575.66;4988920;28;20078;-79
2022/01/12 01:33:59;;;;;;;64.85;25.40;;;-1.30;99.90;;;-1.75;62.77;100582.00;4957069;28;20042;-79
2022/01/12 01:36:28;;;;;;;61.47;24.08;;;-1.30;99.90;;;-1.69;62.97;100576.06;4953580;28;20190;-79
2022/01/12 01:38:53;;;;;;;55.25;24.65;;;-1.30;99.90;;;-1.63;62.81;100567.47;4967127;28;20052;-79
2022/01/12 01:41:22;;;;;;;55.50;26.75;;;-1.30;99.90;;;-1.58;62.80;100572.31;4971577;28;20451;-80
2022/01/12 01:55:02;;;;;;;71.70;27.75;;;-1.30;99.90;;;-1.65;62.41;100566.78;4961717;28;20049;-80
2022/01/12 01:57:29;;;;;;;63.95;26.63;;;-1.30;99.90;;;-1.52;62.52;100566.41;4972052;28;20690;-79
2022/01/12 01:59:55;;;;;;;60.90;25.17;;;-1.30;99.90;;;-1.47;62.46;100557.97;4965077;28;20529;-79
2022/01/12 02:02:21;;;;;;;55.25;26.35;;;-1.20;99.90;;;-1.55;62.66;100562.22;4974304;28;20046;-79
2022/01/12 02:04:47;;;;;;;54.25;24.58;;;-1.20;99.90;;;-1.52;62.47;100561.09;4976229;28;20073;-80
2022/01/12 02:07:15;;;;;;;63.72;24.05;;;-1.20;99.90;;;-1.45;62.55;100563.97;4974171;28;20039;-79
2022/01/12 02:09:50;;;;;;;59.78;25.52;;;-1.10;99.90;;;-1.47;62.57;100569.47;4977304;28;20070;-80
2022/01/12 02:12:27;;;;;;;55.65;24.27;;;-1.10;99.90;;;-1.49;62.42;100559.94;4971038;28;20046;-80
2022/01/12 02:14:56;;;;;;;78.10;27.95;;;-1.10;99.90;;;-1.49;62.25;100563.44;4953624;28;20042;-80
2022/01/12 02:17:35;;;;;;;65.47;25.13;;;-1.10;99.90;;;-1.48;62.60;100558.94;4972966;28;20057;-79
2022/01/12 02:36:23;;;;;;;74.18;28.67;;;-1.10;99.90;;;-1.44;61.88;100560.34;4976156;28;20208;-80
2022/01/12 02:41:34;;;;;;;74.82;28.48;;;-1.10;99.90;;;-1.55;61.73;100561.41;4985526;28;20117;-80
2022/01/12 02:54:52;;;;;;;99.10;35.08;;;-1.10;99.90;;;-1.56;62.36;100565.03;4973692;28;20413;-80
2022/01/12 02:57:19;;;;;;;73.32;27.02;;;-1.20;99.90;;;-1.46;62.35;100563.13;4955514;28;20468;-80
2022/01/12 03:00:03;;;;;;;66.55;26.13;;;-1.20;99.90;;;-1.30;61.90;100559.78;4979083;28;20042;-80
2022/01/12 03:02:36;;;;;;;81.70;30.52;;;-1.10;99.90;;;-1.35;61.72;100568.25;4975746;28;20076;-80
2022/01/12 03:05:22;;;;;;;70.95;27.20;;;-1.10;99.90;;;-1.29;61.79;100568.63;4978638;28;20089;-80
2022/01/12 03:07:48;;;;;;;69.68;27.05;;;-1.00;99.90;;;-1.32;61.76;100559.13;4973369;28;20480;-80
2022/01/12 03:10:15;;;;;;;60.90;25.25;;;-1.00;99.90;;;-1.28;61.78;100556.97;4954910;28;20042;-80
2022/01/12 03:12:43;;;;;;;39.90;16.75;;;-0.90;99.90;;;-1.39;60.84;100558.06;4974119;28;20068;-80
2022/01/12 03:15:09;;;;;;;28.45;13.40;;;-1.00;99.90;;;-1.62;59.89;100561.16;4956056;28;20042;-80
2022/01/12 03:17:35;;;;;;;27.58;11.68;;;-1.00;99.90;;;-1.82;59.47;100554.31;4974695;28;20056;-80
2022/01/12 03:20:05;;;;;;;25.42;11.35;;;-1.20;99.90;;;-1.89;58.85;100548.75;4959151;28;20053;-80
2022/01/12 03:22:31;;;;;;;24.70;11.27;;;-1.30;99.90;;;-1.87;59.14;100551.25;4955739;28;20049;-80
2022/01/12 03:24:57;;;;;;;30.02;14.10;;;-1.40;99.90;;;-1.86;58.88;100547.59;4959602;28;20608;-80
2022/01/12 03:27:25;;;;;;;26.33;10.13;;;-1.40;99.90;;;-1.90;57.92;100554.22;4970247;28;20557;-80
2022/01/12 03:29:55;;;;;;;19.55;10.57;;;-1.40;99.90;;;-1.95;58.04;100545.84;4960866;28;20181;-80
2022/01/12 03:32:30;;;;;;;25.98;12.32;;;-1.50;99.90;;;-1.92;57.74;100546.38;4955050;28;20446;-80
2022/01/12 04:08:21;;;;;;;27.30;12.25;;;-1.60;99.90;;;-2.00;58.71;100549.78;4989070;28;20497;-79
2022/01/12 04:11:00;;;;;;;28.83;14.45;;;-1.60;99.90;;;-1.94;58.54;100558.16;4973780;28;20061;-79
2022/01/12 04:13:29;;;;;;;31.23;14.27;;;-1.60;99.90;;;-1.98;58.19;100553.16;4957601;28;20054;-79
2022/01/12 04:16:00;;;;;;;32.70;15.05;;;-1.60;99.90;;;-1.91;58.03;100557.84;4983792;28;20038;-80
2022/01/12 04:18:26;;;;;;;29.27;12.70;;;-1.60;99.90;;;-1.84;57.59;100553.63;4951486;28;20248;-79
2022/01/12 04:20:52;;;;;;;20.83;10.40;;;-1.60;99.90;;;-1.75;57.72;100566.03;4993949;28;20046;-79
2022/01/12 04:23:21;;;;;;;32.85;12.73;;;-1.50;99.90;;;-1.73;57.60;100566.72;4969243;28;20038;-79
2022/01/12 04:25:54;;;;;;;23.50;11.35;;;-1.50;99.90;;;-1.68;57.66;100564.44;4971123;28;20039;-79
2022/01/12 04:28:21;;;;;;;19.38;10.73;;;-1.50;99.90;;;-1.68;57.43;100574.22;4973360;28;20069;-79
2022/01/12 04:30:47;;;;;;;24.88;12.57;;;-1.40;99.90;;;-1.81;57.52;100566.59;4964124;28;20049;-79
2022/01/12 04:33:14;;;;;;;29.42;13.10;;;-1.40;99.90;;;-1.88;57.10;100569.03;4975512;28;20042;-79
2022/01/12 04:35:48;;;;;;;24.85;11.40;;;-1.50;99.90;;;-1.89;57.41;100570.00;4957215;28;20854;-79
2022/01/12 04:38:16;;;;;;;24.60;12.55;;;-1.60;99.90;;;-1.89;57.51;100574.50;4971691;28;20113;-79
2022/01/12 04:40:42;;;;;;;35.00;16.20;;;-1.50;99.90;;;-1.94;58.18;100580.28;4924097;28;20060;-79
2022/01/12 04:43:09;;;;;;;34.25;15.77;;;-1.50;99.90;;;-2.04;57.80;100576.81;4971835;28;20520;-78
2022/01/12 04:45:56;;;;;;;36.40;14.60;;;-1.50;99.90;;;-2.16;57.80;100578.88;4942533;28;20070;-79
2022/01/12 04:50:51;;;;;;;33.75;15.88;;;-1.70;99.90;;;-2.27;58.32;100576.38;4969518;28;20117;-79
2022/01/12 04:53:19;;;;;;;35.90;15.98;;;-1.70;99.90;;;-2.28;58.34;100586.19;4971190;28;20038;-79
2022/01/12 04:55:46;;;;;;;33.15;14.27;;;-1.90;99.90;;;-2.21;58.55;100584.63;4977596;28;20443;-79
2022/01/12 04:58:14;;;;;;;31.02;14.90;;;-1.80;99.90;;;-2.15;58.35;100593.00;4969612;28;20122;-79
2022/01/12 05:00:42;;;;;;;42.55;17.17;;;-1.90;99.90;;;-2.13;57.97;100597.19;4953784;28;20569;-79
2022/01/12 05:13:52;;;;;;;32.17;15.07;;;-1.80;99.90;;;-2.34;58.24;100591.25;4981957;28;20124;-79
2022/01/12 05:16:18;;;;;;;36.17;17.35;;;-1.90;99.90;;;-2.29;57.83;100584.53;4957730;28;20478;-79
2022/01/12 05:18:45;;;;;;;35.22;15.43;;;-1.90;99.90;;;-2.18;57.77;100588.81;4969326;28;20076;-79
2022/01/12 05:21:12;;;;;;;38.75;17.05;;;-1.90;99.90;;;-2.05;57.61;100589.28;4956488;28;20455;-79
2022/01/12 05:23:38;;;;;;;36.95;16.02;;;-1.90;99.90;;;-1.92;57.71;100594.25;4956712;28;20047;-79
2022/01/12 05:26:04;;;;;;;33.70;16.13;;;-1.80;99.90;;;-1.92;57.36;100594.25;4957994;28;20092;-79
2022/01/12 05:28:30;;;;;;;62.60;35.65;;;-1.70;99.90;;;-1.91;57.35;100598.56;4971888;28;20038;-79
2022/01/12 05:30:56;;;;;;;45.58;23.40;;;-1.60;99.90;;;-1.80;57.75;100595.72;4954910;28;20054;-79
2022/01/12 05:33:25;;;;;;;38.35;17.48;;;-1.60;99.90;;;-1.65;57.78;100593.41;4957665;28;20042;-79
2022/01/12 05:35:52;;;;;;;35.70;16.83;;;-1.40;99.90;;;-1.70;57.13;100594.84;4993774;28;20065;-79
2022/01/12 05:38:18;;;;;;;306.48;95.53;;;-1.40;99.90;;;-1.85;56.94;100603.31;4958154;28;20089;-79
2022/01/12 05:40:52;;;;;;;49.40;20.05;;;-1.40;99.90;;;-1.82;56.95;100603.03;4977752;28;20185;-79
2022/01/12 05:43:23;;;;;;;40.08;17.33;;;-1.40;99.90;;;-1.81;57.55;100603.84;4973845;28;20324;-79
2022/01/12 05:45:50;;;;;;;62.83;36.90;;;-1.40;99.90;;;-1.85;57.11;100594.50;4959786;28;20102;-79
2022/01/12 05:50:42;;;;;;;54.35;22.17;;;-1.50;99.90;;;-1.84;57.13;100604.97;4973205;28;20122;-78
2022/01/12 05:53:08;;;;;;;39.20;17.30;;;-1.50;99.90;;;-1.94;56.88;100608.69;4956382;28;20042;-79
2022/01/12 05:55:34;;;;;;;42.65;19.30;;;-1.50;99.90;;;-1.82;57.13;100612.84;4958307;28;20049;-79
2022/01/12 05:58:00;;;;;;;47.35;19.75;;;-1.50;99.90;;;-1.87;56.66;100617.75;4957600;28;20042;-79
2022/01/12 06:00:29;;;;;;;45.10;19.92;;;-1.40;99.90;;;-1.90;57.22;100615.41;4976155;28;20133;-79
2022/01/12 06:02:55;;;;;;;39.33;18.58;;;-1.50;99.90;;;-1.98;57.12;100608.16;4962967;28;20475;-79
2022/01/12 06:05:22;;;;;;;40.45;17.83;;;-1.40;99.90;;;-2.11;56.90;100611.16;4957492;28;20443;-79
2022/01/12 06:07:49;;;;;;;39.03;18.67;;;-1.50;99.90;;;-2.09;57.17;100611.84;4980477;28;20092;-79
2022/01/12 06:10:15;;;;;;;52.88;21.30;;;-1.60;99.90;;;-1.94;57.17;100619.31;4960781;28;20042;-79
2022/01/12 06:12:42;;;;;;;41.65;19.35;;;-1.60;99.90;;;-1.84;56.94;100620.13;4960683;28;20460;-79
2022/01/12 06:15:08;;;;;;;42.70;18.30;;;-1.60;99.90;;;-1.97;56.14;100623.94;4973599;28;20416;-80
2022/01/12 06:17:34;;;;;;;43.58;19.63;;;-1.50;99.90;;;-2.13;56.02;100636.22;4979217;28;20580;-78
2022/01/12 06:20:02;;;;;;;41.10;19.52;;;-1.50;99.90;;;-2.31;56.52;100649.44;4960324;28;20117;-78
2022/01/12 06:22:28;;;;;;;36.10;17.95;;;-1.60;99.90;;;-2.34;56.98;100652.38;4953650;28;20486;-78
2022/01/12 06:24:56;;;;;;;41.75;19.40;;;-1.80;99.90;;;-2.39;56.85;100647.50;4956055;28;20124;-78
2022/01/12 06:27:23;;;;;;;37.90;18.58;;;-1.80;99.90;;;-2.42;57.20;100658.41;4972311;28;20106;-78
2022/01/12 06:32:36;;;;;;;41.85;17.15;;;-1.90;99.90;;;-2.31;57.58;100644.97;4962907;28;20468;-78
2022/01/12 06:35:01;;;;;;;43.88;20.40;;;-1.90;99.90;;;-2.27;57.19;100642.84;4954966;28;20078;-78
2022/01/12 06:37:27;;;;;;;42.28;18.60;;;-1.90;99.90;;;-2.25;57.70;100646.19;4955548;28;20042;-78
2022/01/12 06:39:53;;;;;;;42.65;18.42;;;-1.90;99.90;;;-2.25;57.13;100643.53;4955469;28;20124;-78
2022/01/12 06:42:19;;;;;;;36.20;17.10;;;-1.90;99.90;;;-2.26;57.36;100648.03;4957046;28;20093;-78
2022/01/12 06:44:47;;;;;;;41.58;17.10;;;-1.90;99.90;;;-2.18;56.80;100647.28;4971931;28;20187;-78
2022/01/12 06:47:14;;;;;;;44.65;19.60;;;-1.80;99.90;;;-2.19;56.54;100654.44;4956156;28;20074;-79
2022/01/12 06:49:39;;;;;;;41.35;20.55;;;-1.70;99.90;;;-2.06;57.11;100654.09;4974706;28;20481;-79
2022/01/12 06:52:06;;;;;;;49.38;19.58;;;-1.70;99.90;;;-2.14;56.45;100661.94;4956102;28;20060;-78
2022/01/12 06:54:32;;;;;;;40.47;17.33;;;-1.60;99.90;;;-2.22;56.42;100664.50;4955124;28;20054;-78
2022/01/12 06:56:58;;;;;;;47.85;18.27;;;-1.70;99.90;;;-2.23;56.71;100668.16;4960385;28;20478;-78
2022/01/12 06:59:24;;;;;;;43.33;18.13;;;-1.70;99.90;;;-2.21;56.64;100676.84;4977663;28;20374;-78
2022/01/12 07:01:51;;;;;;;38.03;17.70;;;-1.70;99.90;;;-2.20;56.80;100678.50;4959413;28;20118;-79
2022/01/12 07:04:17;;;;;;;47.63;20.50;;;-1.70;99.90;;;-2.22;57.11;100675.13;4970488;28;20181;-78
2022/01/12 07:06:43;;;;;;;43.28;21.13;;;-1.70;99.90;;;-2.29;57.11;100672.25;4975971;28;20042;-79
2022/01/12 07:09:09;;;;;;;39.20;18.88;;;-1.70;99.90;;;-2.33;56.62;100670.00;4943760;28;20405;-79
2022/01/12 07:11:35;;;;;;;37.03;17.55;;;-1.70;99.90;;;-2.34;56.67;100674.50;4972604;28;20048;-79
2022/01/12 07:14:01;;;;;;;32.03;15.18;;;-1.80;99.90;;;-2.26;56.19;100677.25;4969212;28;20030;-78
2022/01/12 07:16:27;;;;;;;36.65;16.08;;;-1.80;99.90;;;-2.09;55.82;100677.47;4957199;28;20220;-79
2022/01/12 07:18:58;;;;;;;30.45;16.38;;;-1.80;99.90;;;-1.98;55.74;100680.81;4978739;28;20042;-78
2022/01/12 07:21:24;;;;;;;38.60;15.93;;;-1.70;99.90;;;-1.83;55.80;100669.66;4989518;28;20117;-80
2022/01/12 07:23:54;;;;;;;38.83;15.43;;;-1.50;99.90;;;-1.76;55.43;100658.28;4959749;28;20042;-79
2022/01/12 07:26:22;;;;;;;34.00;16.10;;;-1.50;99.90;;;-1.61;55.78;100669.28;4956452;28;20509;-79
2022/01/12 07:28:48;;;;;;;33.42;14.18;;;-1.40;99.90;;;-1.50;55.88;100670.91;4956612;28;20096;-78
2022/01/12 07:31:15;;;;;;;40.15;17.88;;;-1.20;99.90;;;-1.44;55.20;100674.78;4968467;28;20823;-79
2022/01/12 07:33:41;;;;;;;36.42;17.38;;;-1.10;99.90;;;-1.33;55.50;100687.88;4974179;28;20049;-78
2022/01/12 07:36:06;;;;;;;35.65;16.85;;;-1.10;99.90;;;-1.42;54.99;100694.94;4972002;28;20117;-78
2022/01/12 07:38:33;;;;;;;42.47;20.25;;;-1.00;99.90;;;-1.42;54.70;100704.75;4993474;28;20081;-79
2022/01/12 07:40:58;;;;;;;34.72;18.67;;;-1.00;99.90;;;-1.46;54.67;100698.06;4957956;28;20498;-79
2022/01/12 07:43:24;;;;;;;37.63;17.25;;;-1.00;99.90;;;-1.39;54.38;100696.47;4971688;28;20034;-78
2022/01/12 07:45:51;;;;;;;29.70;15.75;;;-1.00;99.90;;;-1.26;53.90;100688.13;4970004;28;20077;-78
2022/01/12 07:48:17;;;;;;;34.50;17.15;;;-0.90;99.90;;;-1.19;54.29;100689.19;4939331;28;20038;-78
2022/01/12 07:50:44;;;;;;;41.35;17.13;;;-0.90;99.90;;;-1.13;53.94;100677.94;4970203;28;20585;-78
2022/01/12 07:53:11;;;;;;;34.53;15.82;;;-0.80;99.90;;;-1.16;53.49;100678.25;4967091;28;21132;-79
2022/01/12 07:55:37;;;;;;;40.72;17.60;;;-0.80;99.90;;;-1.27;53.23;100695.28;4973939;28;20034;-79
2022/01/12 07:58:03;;;;;;;33.72;16.55;;;-0.80;99.90;;;-1.38;53.44;100690.16;4971078;28;20081;-79
2022/01/12 08:00:31;;;;;;;38.65;16.63;;;-0.80;99.90;;;-1.51;53.71;100697.66;4958507;28;20034;-79
2022/01/12 08:02:57;;;;;;;32.25;15.82;;;-0.90;99.90;;;-1.62;54.02;100690.72;4971394;28;20234;-79
2022/01/12 08:05:23;;;;;;;40.67;17.77;;;-1.00;99.90;;;-1.72;54.17;100681.94;4983796;28;20085;-79
2022/01/12 08:07:49;;;;;;;32.63;14.27;;;-1.10;99.90;;;-1.72;54.27;100693.44;4972566;28;20137;-78
2022/01/12 08:10:15;;;;;;;36.33;15.18;;;-1.10;99.90;;;-1.58;53.73;100687.63;4955371;28;20047;-78
2022/01/12 08:12:42;;;;;;;36.92;15.90;;;-1.10;99.90;;;-1.56;53.31;100690.13;4953573;28;20054;-79
2022/01/12 08:15:09;;;;;;;38.65;16.95;;;-1.10;99.90;;;-1.40;53.27;100697.44;4954384;28;20039;-79
2022/01/12 08:17:35;;;;;;;31.80;14.48;;;-1.00;99.90;;;-1.21;53.44;100700.00;4952453;28;20100;-79
2022/01/12 08:20:02;;;;;;;32.03;15.68;;;-0.90;99.90;;;-1.08;53.36;100698.78;4973100;28;20105;-79
2022/01/12 08:22:28;;;;;;;33.08;17.45;;;-0.80;99.90;;;-1.05;53.35;100706.47;4969423;28;20189;-79
2022/01/12 08:24:55;;;;;;;37.05;14.60;;;-0.70;99.90;;;-1.01;53.25;100710.53;4974894;28;20046;-79
2022/01/12 08:27:21;;;;;;;37.35;16.13;;;-0.60;99.90;;;-0.95;53.03;100701.91;4955935;28;20141;-79
2022/01/12 08:29:49;;;;;;;30.85;13.95;;;-0.60;99.90;;;-0.89;53.40;100693.28;4972453;28;20046;-79
2022/01/12 08:32:16;;;;;;;36.28;15.68;;;-0.50;99.90;;;-0.85;53.54;100699.16;4953960;28;20050;-79
2022/01/12 08:34:43;;;;;;;35.67;16.75;;;-0.40;99.90;;;-0.79;53.21;100701.22;4979066;28;20086;-79
2022/01/12 08:37:09;;;;;;;41.10;17.75;;;-0.40;99.90;;;-0.83;53.16;100691.88;4966990;28;20113;-79
2022/01/12 08:39:35;;;;;;;31.92;16.45;;;-0.40;99.90;;;-0.83;53.33;100700.69;4953205;28;20417;-79
2022/01/12 08:42:01;;;;;;;28.58;15.27;;;-0.40;99.90;;;-0.74;53.04;100696.25;4951333;28;20077;-79
2022/01/12 08:44:27;;;;;;;32.58;15.50;;;-0.30;99.90;;;-0.78;52.79;100713.56;4956356;28;20494;-79
2022/01/12 08:46:53;;;;;;;37.17;17.85;;;-0.30;99.90;;;-0.96;52.38;100713.56;4978011;28;20070;-79
2022/01/12 08:49:19;;;;;;;36.50;18.67;;;-0.40;99.90;;;-1.11;52.24;100722.06;4995894;28;20093;-79
2022/01/12 08:51:45;;;;;;;36.70;17.05;;;-0.40;99.90;;;-1.25;52.54;100724.41;4973068;28;20039;-79
2022/01/12 08:54:11;;;;;;;36.97;18.25;;;-0.60;99.90;;;-1.24;52.72;100726.94;4946908;28;20078;-79
2022/01/12 08:56:38;;;;;;;37.13;19.17;;;-0.60;99.90;;;-1.39;52.18;100731.09;4957540;28;20126;-79
2022/01/12 08:59:04;;;;;;;40.35;17.50;;;-0.70;99.90;;;-1.43;52.41;100724.38;4958384;28;20046;-79
2022/01/12 09:01:30;;;;;;;37.72;18.55;;;-0.70;99.90;;;-1.27;52.45;100724.56;4974434;28;20141;-79
2022/01/12 09:03:56;;;;;;;45.05;18.77;;;-0.80;99.90;;;-1.28;52.09;100730.03;4961051;28;20063;-79
2022/01/12 09:06:22;;;;;;;50.65;22.50;;;-0.80;99.90;;;-1.42;52.49;100720.75;4956567;28;20422;-79
2022/01/12 09:08:49;;;;;;;51.92;23.27;;;-0.80;99.90;;;-1.41;52.37;100719.75;4959011;28;20493;-79
2022/01/12 09:11:18;;;;;;;44.45;18.02;;;-0.80;99.90;;;-1.43;52.14;100724.38;4962455;28;20042;-79
2022/01/12 09:13:46;;;;;;;61.25;26.10;;;-0.90;99.90;;;-1.46;52.47;100727.34;4965601;28;20038;-79
2022/01/12 09:16:13;;;;;;;56.42;26.48;;;-0.90;99.90;;;-1.42;52.73;100723.41;4956067;28;20076;-79
2022/01/12 09:18:39;;;;;;;48.78;20.25;;;-0.90;99.90;;;-1.28;53.17;100722.88;4956663;28;20057;-79
2022/01/12 09:21:07;;;;;;;40.60;17.17;;;-0.90;99.90;;;-1.11;53.07;100732.72;4955817;28;20039;-79
2022/01/12 09:23:33;;;;;;;38.28;17.25;;;-0.70;99.90;;;-1.00;52.62;100720.16;4956873;28;20050;-79
2022/01/12 09:25:59;;;;;;;28.10;14.82;;;-0.70;99.90;;;-1.11;52.16;100727.41;4953274;28;20418;-79
2022/01/12 09:28:25;;;;;;;38.25;18.27;;;-0.60;99.90;;;-1.13;52.23;100732.03;4974097;28;20470;-79
2022/01/12 09:30:52;;;;;;;35.72;18.63;;;-0.60;99.90;;;-1.08;52.70;100722.75;4957644;28;20062;-79
2022/01/12 09:33:18;;;;;;;36.90;17.35;;;-0.60;99.90;;;-1.10;52.64;100721.06;4956101;28;20046;-79
2022/01/12 09:35:47;;;;;;;36.47;16.80;;;-0.60;99.90;;;-1.13;51.73;100715.22;4967879;28;20066;-79
2022/01/12 09:38:13;;;;;;;33.58;14.27;;;-0.60;99.90;;;-1.08;52.54;100701.44;4961736;28;22066;-79
2022/01/12 09:40:39;;;;;;;30.25;14.77;;;-0.60;99.90;;;-1.03;51.80;100701.84;4974862;28;20145;-79
2022/01/12 09:43:05;;;;;;;40.85;17.50;;;-0.50;99.90;;;-0.99;52.47;100696.06;4987964;28;20164;-79
2022/01/12 09:45:34;;;;;;;30.80;15.10;;;-0.50;99.90;;;-0.95;51.70;100693.91;4960375;28;20042;-80
2022/01/12 09:48:00;;;;;;;34.58;13.50;;;-0.50;99.90;;;-1.06;51.97;100678.16;4956681;28;20360;-79
2022/01/12 09:50:26;;;;;;;31.77;15.57;;;-0.50;99.90;;;-1.04;52.28;100684.16;4960761;28;20480;-79
2022/01/12 09:52:52;;;;;;;34.20;17.33;;;-0.50;99.90;;;-0.93;52.95;100679.44;4971541;28;20117;-79
2022/01/12 09:55:19;;;;;;;38.58;19.00;;;-0.50;99.90;;;-0.85;52.90;100668.03;4987622;28;20169;-79
2022/01/12 09:57:45;;;;;;;33.80;16.17;;;-0.40;99.90;;;-0.75;52.42;100659.94;4993618;28;20074;-79
2022/01/12 10:00:13;;;;;;;40.55;16.85;;;-0.20;99.90;;;-0.66;51.97;100657.19;4952595;28;20042;-79
2022/01/12 10:02:41;;;;;;;29.35;14.73;;;-0.20;99.90;;;-0.59;51.36;100653.91;4955155;28;20125;-79
2022/01/12 10:05:08;;;;;;;32.88;15.57;;;0.00;99.90;;;-0.57;50.32;100657.25;4956407;28;20034;-79
2022/01/12 10:07:35;;;;;;;32.42;14.70;;;0.00;99.60;;;-0.57;50.72;100657.25;4957216;28;20042;-79
2022/01/12 10:10:06;;;;;;;38.15;16.80;;;0.00;99.80;;;-0.55;49.93;100664.09;4953960;28;20544;-79
2022/01/12 10:12:33;;;;;;;38.80;16.38;;;0.00;99.30;;;-0.76;50.07;100660.94;4975606;28;20493;-79
2022/01/12 10:15:04;;;;;;;36.63;17.38;;;0.00;98.60;;;-0.81;50.59;100661.41;4971331;28;20375;-79
2022/01/12 10:17:41;;;;;;;37.40;17.73;;;-0.10;98.70;;;-0.76;50.29;100664.44;4955229;28;20413;-79
2022/01/12 10:20:21;;;;;;;36.97;17.58;;;-0.10;98.90;;;-0.90;49.59;100668.47;4972110;28;20169;-79
2022/01/12 10:23:07;;;;;;;33.40;16.35;;;-0.20;98.20;;;-1.00;49.68;100670.38;4968497;28;20819;-79
2022/01/12 10:25:33;;;;;;;40.90;18.38;;;-0.30;98.00;;;-0.95;49.66;100675.25;4992552;28;20492;-79
2022/01/12 10:28:15;;;;;;;36.53;17.30;;;-0.30;98.00;;;-0.77;49.47;100677.91;4961600;28;20058;-80
2022/01/12 10:31:00;;;;;;;39.70;16.83;;;-0.30;98.20;;;-0.66;49.92;100678.53;4953339;28;20121;-79
2022/01/12 10:33:33;;;;;;;40.47;18.05;;;-0.20;98.50;;;-0.60;50.36;100677.06;4987052;28;20093;-79
2022/01/12 10:36:06;;;;;;;38.38;17.90;;;-0.20;99.00;;;-0.49;50.52;100670.63;4986193;28;20134;-79
2022/01/12 10:38:32;;;;;;;46.95;17.65;;;0.00;99.00;;;-0.48;50.78;100667.00;4970256;28;20081;-79
2022/01/12 10:41:03;;;;;;;31.90;15.38;;;0.10;99.10;;;-0.31;50.12;100671.41;4951440;28;20085;-79
2022/01/12 10:43:47;;;;;;;39.35;15.73;;;0.20;98.90;;;-0.17;48.13;100654.00;4973037;28;20487;-79
2022/01/12 10:46:15;;;;;;;42.00;18.95;;;0.40;97.60;;;-0.10;47.98;100656.88;4985588;28;20075;-79
2022/01/12 10:48:54;;;;;;;33.15;16.90;;;0.40;96.90;;;0.15;48.12;100652.47;4971916;28;20523;-79
2022/01/12 10:51:25;;;;;;;36.83;15.73;;;0.50;97.10;;;0.39;47.39;100647.25;4970228;28;20034;-79
2022/01/12 10:53:53;;;;;;;47.78;18.75;;;0.70;97.00;;;0.49;46.84;100639.09;4974721;28;20050;-79
2022/01/12 10:56:23;;;;;;;83.43;31.50;;;0.90;96.30;;;0.71;46.84;100634.94;4967119;28;20070;-79
2022/01/12 10:58:51;;;;;;;38.03;17.85;;;1.10;96.50;;;0.94;47.09;100640.53;4973262;28;20100;-79
2022/01/12 11:01:20;;;;;;;35.30;17.85;;;1.30;96.20;;;1.12;46.17;100648.38;4954758;28;20489;-79
2022/01/12 11:03:46;;;;;;;34.28;15.07;;;1.50;95.70;;;1.18;45.97;100633.50;4968998;28;20062;-79
2022/01/12 11:06:12;;;;;;;37.03;16.67;;;1.70;95.30;;;1.18;45.72;100641.53;4972210;28;20052;-80
2022/01/12 11:08:39;;;;;;;32.60;16.30;;;1.80;94.80;;;1.10;45.32;100652.22;4971433;28;20541;-79
2022/01/12 11:11:06;;;;;;;34.28;16.00;;;1.80;93.90;;;0.93;44.86;100648.69;4969507;28;20461;-79
2022/01/12 11:13:32;;;;;;;39.47;16.73;;;1.70;93.40;;;0.71;45.89;100642.13;4960102;28;20047;-79
2022/01/12 11:15:59;;;;;;;38.38;16.42;;;1.50;93.40;;;0.72;45.45;100635.81;4984788;28;20047;-79
2022/01/12 11:18:31;;;;;;;34.53;16.73;;;1.40;93.60;;;0.72;45.99;100633.13;4952840;28;20569;-79
2022/01/12 11:21:46;;;;;;;41.25;17.50;;;1.30;94.00;;;0.77;46.40;100633.47;4954088;28;20125;-79
2022/01/12 11:24:14;;;;;;;41.78;18.92;;;1.40;94.40;;;0.68;46.43;100626.44;4970054;28;20046;-79
2022/01/12 11:26:48;;;;;;;31.52;16.70;;;1.30;93.80;;;0.63;45.70;100624.25;4970095;28;20509;-79
2022/01/12 11:29:26;;;;;;;46.38;18.23;;;1.30;93.60;;;0.64;46.38;100644.66;4985210;28;20037;-79
2022/01/12 11:31:52;;;;;;;44.42;18.63;;;1.20;93.90;;;0.61;46.71;100636.94;4972648;28;20042;-79
2022/01/12 11:34:19;;;;;;;43.33;18.80;;;1.20;94.10;;;0.61;46.65;100626.25;4981453;28;20125;-79
2022/01/12 11:36:45;;;;;;;39.30;17.55;;;1.20;94.10;;;0.76;46.60;100621.09;4968459;28;20132;-79
2022/01/12 11:39:15;;;;;;;38.85;17.25;;;1.20;94.20;;;1.01;46.25;100614.78;4954334;28;20233;-79
2022/01/12 11:41:44;;;;;;;41.67;16.55;;;1.40;94.10;;;0.87;44.12;100626.16;4983130;28;20453;-79
2022/01/12 11:44:22;;;;;;;32.75;16.95;;;1.50;92.50;;;0.79;44.28;100624.31;4971503;28;20445;-79
2022/01/12 11:46:53;;;;;;;34.35;15.85;;;1.40;91.90;;;0.88;44.45;100614.44;4971318;28;20542;-79
2022/01/12 11:49:54;;;;;;;33.47;14.52;;;1.50;92.30;;;0.73;44.55;100603.56;4983950;28;20053;-79
2022/01/12 11:52:29;;;;;;;34.75;17.73;;;1.40;91.80;;;0.92;44.27;100594.41;4951482;28;20060;-79
2022/01/12 11:55:13;;;;;;;34.35;15.77;;;1.40;92.10;;;0.94;43.64;100600.44;4952864;28;20069;-79
2022/01/12 11:57:42;;;;;;;42.92;17.00;;;1.50;91.40;;;1.08;45.51;100599.75;4969338;28;20153;-79